createdAt,value
2018-12-04T00:00:04.015Z,0.00
2018-12-04T00:01:04.644Z,0.00
2018-12-04T00:02:03.754Z,0.00
2018-12-04T00:03:03.623Z,0.00
2018-12-04T00:04:03.491Z,0.00
2018-12-04T00:05:03.359Z,0.00
2018-12-04T00:06:03.233Z,0.00
2018-12-04T00:07:03.099Z,0.00
2018-12-04T00:08:02.970Z,0.00
2018-12-04T00:09:02.838Z,0.00
2018-12-04T00:10:02.707Z,0.00
2018-12-04T00:11:02.577Z,0.00
2018-12-04T00:12:02.449Z,0.00
2018-12-04T00:13:02.317Z,0.00
2018-12-04T00:14:02.185Z,0.00
2018-12-04T00:15:02.054Z,0.00
2018-12-04T00:16:01.927Z,0.00
2018-12-04T00:17:01.793Z,0.00
2018-12-04T00:18:01.663Z,0.00
2018-12-04T00:19:01.533Z,0.00
2018-12-04T00:20:01.410Z,0.00
2018-12-04T00:21:01.271Z,0.00
2018-12-04T00:22:01.142Z,0.00
2018-12-04T00:23:01.014Z,0.00
2018-12-04T00:24:00.881Z,0.00
2018-12-04T00:25:00.749Z,0.00
2018-12-04T00:26:00.622Z,0.00
2018-12-04T00:27:00.490Z,0.00
2018-12-04T00:28:00.359Z,0.00
2018-12-04T00:29:00.233Z,0.00
2018-12-04T00:30:00.097Z,0.00
2018-12-04T00:30:59.971Z,0.00
2018-12-04T00:31:59.835Z,0.00
2018-12-04T00:32:59.705Z,0.00
2018-12-04T00:33:59.577Z,0.00
2018-12-04T00:34:59.446Z,0.00
2018-12-04T00:35:59.314Z,0.00
2018-12-04T00:36:59.182Z,0.00
2018-12-04T00:37:59.053Z,0.00
2018-12-04T00:38:58.925Z,0.00
2018-12-04T00:39:58.793Z,0.00
2018-12-04T00:40:58.660Z,0.00
2018-12-04T00:41:58.532Z,0.00
2018-12-04T00:42:58.400Z,0.00
2018-12-04T00:43:58.272Z,0.00
2018-12-04T00:44:58.140Z,0.00
2018-12-04T00:45:58.011Z,0.00
2018-12-04T00:46:57.880Z,0.00
2018-12-04T00:47:57.760Z,0.00
2018-12-04T00:48:57.620Z,0.00
2018-12-04T00:49:57.489Z,0.00
2018-12-04T00:50:57.359Z,0.00
2018-12-04T00:51:57.228Z,0.00
2018-12-04T00:52:57.096Z,0.00
2018-12-04T00:53:56.967Z,0.00
2018-12-04T00:54:56.838Z,0.00
2018-12-04T00:55:56.708Z,0.00
2018-12-04T00:56:56.576Z,0.00
2018-12-04T00:57:56.448Z,0.00
2018-12-04T00:58:56.315Z,0.00
2018-12-04T00:59:56.189Z,0.00
2018-12-04T01:00:56.054Z,0.00
2018-12-04T01:01:55.923Z,0.00
2018-12-04T01:02:55.793Z,0.00
2018-12-04T01:03:55.664Z,0.00
2018-12-04T01:04:55.530Z,0.00
2018-12-04T01:05:55.404Z,0.00
2018-12-04T01:06:55.271Z,0.00
2018-12-04T01:07:55.139Z,0.00
2018-12-04T01:08:55.008Z,0.00
2018-12-04T01:09:54.930Z,0.00
2018-12-04T01:10:54.748Z,0.00
2018-12-04T01:11:54.618Z,0.00
2018-12-04T01:12:54.486Z,0.00
2018-12-04T01:13:54.356Z,0.00
2018-12-04T01:14:54.227Z,0.00
2018-12-04T01:15:54.096Z,0.00
2018-12-04T01:16:53.963Z,0.00
2018-12-04T01:17:53.833Z,0.00
2018-12-04T01:18:53.703Z,0.00
2018-12-04T01:19:53.572Z,0.00
2018-12-04T01:20:53.443Z,0.00
2018-12-04T01:21:53.310Z,0.00
2018-12-04T01:22:53.180Z,0.00
2018-12-04T01:23:53.052Z,0.00
2018-12-04T01:24:52.918Z,0.00
2018-12-04T01:25:52.786Z,0.00
2018-12-04T01:26:52.656Z,0.00
2018-12-04T01:27:52.524Z,0.00
2018-12-04T01:28:52.394Z,0.00
2018-12-04T01:29:52.265Z,0.00
2018-12-04T01:30:52.133Z,0.00
2018-12-04T01:31:52.001Z,0.00
2018-12-04T01:32:51.869Z,0.00
2018-12-04T01:33:51.739Z,0.00
2018-12-04T01:34:51.609Z,0.00
2018-12-04T01:35:51.478Z,0.00
2018-12-04T01:36:51.352Z,0.00
2018-12-04T01:37:51.217Z,0.00
2018-12-04T01:38:51.087Z,0.00
2018-12-04T01:39:50.958Z,0.00
2018-12-04T01:40:50.828Z,0.00
2018-12-04T01:41:50.694Z,0.00
2018-12-04T01:42:50.567Z,0.00
2018-12-04T01:43:50.434Z,0.00
2018-12-04T01:44:50.303Z,0.00
2018-12-04T01:45:50.173Z,0.00
2018-12-04T01:46:50.045Z,0.00
2018-12-04T01:47:49.913Z,0.00
2018-12-04T01:48:49.782Z,0.00
2018-12-04T01:49:49.650Z,0.00
2018-12-04T01:50:49.521Z,0.00
2018-12-04T01:51:49.408Z,0.00
2018-12-04T01:52:49.262Z,0.00
2018-12-04T01:53:49.132Z,0.00
2018-12-04T01:54:48.999Z,0.00
2018-12-04T01:55:48.870Z,0.00
2018-12-04T01:56:48.739Z,0.00
2018-12-04T01:57:48.608Z,0.00
2018-12-04T01:58:48.478Z,0.00
2018-12-04T01:59:48.348Z,0.00
2018-12-04T02:00:48.219Z,0.00
2018-12-04T02:01:48.086Z,0.00
2018-12-04T02:02:47.958Z,0.00
2018-12-04T02:03:47.829Z,0.00
2018-12-04T02:04:47.698Z,0.00
2018-12-04T02:05:47.566Z,0.00
2018-12-04T02:06:47.440Z,0.00
2018-12-04T02:07:47.307Z,0.00
2018-12-04T02:08:47.180Z,0.00
2018-12-04T02:09:47.049Z,0.00
2018-12-04T02:10:46.915Z,0.00
2018-12-04T02:11:46.785Z,0.00
2018-12-04T02:12:46.659Z,0.00
2018-12-04T02:13:46.526Z,0.00
2018-12-04T02:14:46.396Z,0.00
2018-12-04T02:15:46.271Z,0.00
2018-12-04T02:16:46.135Z,0.00
2018-12-04T02:17:46.006Z,0.00
2018-12-04T02:18:45.876Z,0.00
2018-12-04T02:19:45.744Z,0.00
2018-12-04T02:20:45.613Z,0.00
2018-12-04T02:21:45.484Z,0.00
2018-12-04T02:22:45.353Z,0.00
2018-12-04T02:23:45.222Z,0.00
2018-12-04T02:24:45.090Z,0.00
2018-12-04T02:25:44.959Z,0.00
2018-12-04T02:26:44.829Z,0.00
2018-12-04T02:27:44.705Z,0.00
2018-12-04T02:28:44.569Z,0.00
2018-12-04T02:29:44.442Z,0.00
2018-12-04T02:30:44.307Z,0.00
2018-12-04T02:31:44.186Z,0.00
2018-12-04T02:32:44.047Z,0.00
2018-12-04T02:33:43.913Z,0.00
2018-12-04T02:34:43.802Z,0.00
2018-12-04T02:35:43.652Z,0.00
2018-12-04T02:36:43.519Z,0.00
2018-12-04T02:37:43.389Z,0.00
2018-12-04T02:38:43.258Z,0.00
2018-12-04T02:39:43.128Z,0.00
2018-12-04T02:40:42.994Z,0.00
2018-12-04T02:41:42.864Z,0.00
2018-12-04T02:42:42.731Z,0.00
2018-12-04T02:43:42.601Z,0.00
2018-12-04T02:44:42.469Z,0.00
2018-12-04T02:45:42.337Z,0.00
2018-12-04T02:46:42.209Z,0.00
2018-12-04T02:47:42.077Z,0.00
2018-12-04T02:48:41.943Z,0.00
2018-12-04T02:49:41.818Z,0.00
2018-12-04T02:50:41.688Z,0.00
2018-12-04T02:51:41.550Z,0.00
2018-12-04T02:52:41.419Z,0.00
2018-12-04T02:53:41.287Z,0.00
2018-12-04T02:54:41.165Z,0.00
2018-12-04T02:55:41.024Z,0.00
2018-12-04T02:56:40.894Z,0.00
2018-12-04T02:57:40.766Z,0.00
2018-12-04T02:58:40.629Z,0.00
2018-12-04T02:59:40.503Z,0.00
2018-12-04T03:00:40.369Z,0.00
2018-12-04T03:01:40.241Z,0.00
2018-12-04T03:02:40.107Z,0.00
2018-12-04T03:03:39.975Z,0.00
2018-12-04T03:04:39.844Z,0.00
2018-12-04T03:05:39.711Z,0.00
2018-12-04T03:06:39.582Z,0.00
2018-12-04T03:07:39.450Z,0.00
2018-12-04T03:08:39.319Z,0.00
2018-12-04T03:09:39.190Z,0.00
2018-12-04T03:10:39.057Z,0.00
2018-12-04T03:11:38.925Z,0.00
2018-12-04T03:12:38.793Z,0.00
2018-12-04T03:13:38.664Z,0.00
2018-12-04T03:14:38.532Z,0.00
2018-12-04T03:15:38.401Z,0.00
2018-12-04T03:16:38.269Z,0.00
2018-12-04T03:17:38.136Z,0.00
2018-12-04T03:18:38.012Z,0.00
2018-12-04T03:19:37.955Z,0.00
2018-12-04T03:20:37.756Z,0.00
2018-12-04T03:21:37.613Z,0.00
2018-12-04T03:22:37.480Z,0.00
2018-12-04T03:23:37.353Z,0.00
2018-12-04T03:24:37.218Z,0.00
2018-12-04T03:25:37.087Z,0.00
2018-12-04T03:26:36.958Z,0.00
2018-12-04T03:27:36.824Z,0.00
2018-12-04T03:28:36.696Z,0.00
2018-12-04T03:29:36.562Z,0.00
2018-12-04T03:30:36.431Z,0.00
2018-12-04T03:31:36.298Z,0.00
2018-12-04T03:32:36.173Z,0.00
2018-12-04T03:33:36.057Z,0.00
2018-12-04T03:34:35.902Z,0.00
2018-12-04T03:35:35.773Z,0.00
2018-12-04T03:36:35.641Z,0.00
2018-12-04T03:37:35.510Z,0.00
2018-12-04T03:38:35.380Z,0.00
2018-12-04T03:39:35.247Z,0.00
2018-12-04T03:40:35.117Z,0.00
2018-12-04T03:41:34.984Z,0.00
2018-12-04T03:42:34.853Z,0.00
2018-12-04T03:43:34.721Z,0.00
2018-12-04T03:44:34.588Z,0.00
2018-12-04T03:45:34.461Z,0.00
2018-12-04T03:46:34.329Z,0.00
2018-12-04T03:47:34.196Z,0.00
2018-12-04T03:48:34.066Z,0.00
2018-12-04T03:49:33.934Z,0.00
2018-12-04T03:50:33.803Z,0.00
2018-12-04T03:51:33.670Z,0.00
2018-12-04T03:52:33.540Z,0.00
2018-12-04T03:53:33.411Z,0.00
2018-12-04T03:54:33.282Z,0.00
2018-12-04T03:55:34.411Z,0.00
2018-12-04T03:56:33.015Z,0.00
2018-12-04T03:57:32.884Z,0.00
2018-12-04T03:58:32.754Z,0.00
2018-12-04T03:59:32.622Z,0.00
2018-12-04T04:00:32.490Z,0.00
2018-12-04T04:01:32.360Z,0.00
2018-12-04T04:02:32.227Z,0.00
2018-12-04T04:03:32.097Z,0.00
2018-12-04T04:04:31.965Z,0.00
2018-12-04T04:05:31.833Z,0.00
2018-12-04T04:06:31.704Z,0.00
2018-12-04T04:07:31.571Z,0.00
2018-12-04T04:08:31.441Z,0.00
2018-12-04T04:09:31.308Z,0.00
2018-12-04T04:10:31.180Z,0.00
2018-12-04T04:11:31.049Z,0.00
2018-12-04T04:12:30.920Z,0.00
2018-12-04T04:13:30.787Z,0.00
2018-12-04T04:14:30.655Z,0.00
2018-12-04T04:15:30.524Z,0.00
2018-12-04T04:16:30.392Z,0.00
2018-12-04T04:17:30.262Z,0.00
2018-12-04T04:18:30.135Z,0.00
2018-12-04T04:19:29.999Z,0.00
2018-12-04T04:20:29.865Z,0.00
2018-12-04T04:21:29.736Z,0.00
2018-12-04T04:22:29.613Z,0.00
2018-12-04T04:23:29.473Z,0.00
2018-12-04T04:24:29.342Z,0.00
2018-12-04T04:25:29.216Z,0.00
2018-12-04T04:26:29.079Z,0.00
2018-12-04T04:27:28.948Z,0.00
2018-12-04T04:28:28.815Z,0.00
2018-12-04T04:29:28.696Z,0.00
2018-12-04T04:30:28.557Z,0.00
2018-12-04T04:31:28.422Z,0.00
2018-12-04T04:32:28.299Z,0.00
2018-12-04T04:33:28.158Z,0.00
2018-12-04T04:34:28.026Z,0.00
2018-12-04T04:35:27.901Z,0.00
2018-12-04T04:36:27.766Z,0.00
2018-12-04T04:37:27.631Z,0.00
2018-12-04T04:38:27.500Z,0.00
2018-12-04T04:39:27.368Z,0.00
2018-12-04T04:40:27.241Z,0.00
2018-12-04T04:41:27.107Z,0.00
2018-12-04T04:42:26.980Z,0.00
2018-12-04T04:43:26.845Z,0.00
2018-12-04T04:44:26.710Z,0.00
2018-12-04T04:45:26.579Z,0.00
2018-12-04T04:46:26.450Z,0.00
2018-12-04T04:47:26.321Z,0.00
2018-12-04T04:48:26.186Z,0.00
2018-12-04T04:49:26.054Z,0.00
2018-12-04T04:50:25.930Z,0.00
2018-12-04T04:51:25.799Z,0.00
2018-12-04T04:52:25.669Z,0.00
2018-12-04T04:53:25.533Z,0.00
2018-12-04T04:54:25.403Z,0.00
2018-12-04T04:55:25.276Z,0.00
2018-12-04T04:56:25.145Z,0.00
2018-12-04T04:57:25.011Z,0.00
2018-12-04T04:58:24.875Z,0.00
2018-12-04T04:59:24.745Z,0.00
2018-12-04T05:00:24.610Z,0.00
2018-12-04T05:01:24.479Z,0.00
2018-12-04T05:02:24.347Z,0.00
2018-12-04T05:03:24.216Z,0.00
2018-12-04T05:04:24.088Z,0.00
2018-12-04T05:05:23.958Z,0.00
2018-12-04T05:06:23.822Z,0.00
2018-12-04T05:07:23.691Z,0.00
2018-12-04T05:08:23.559Z,0.00
2018-12-04T05:09:23.430Z,0.00
2018-12-04T05:10:23.298Z,0.00
2018-12-04T05:11:23.168Z,0.00
2018-12-04T05:12:23.035Z,0.00
2018-12-04T05:13:22.902Z,0.00
2018-12-04T05:14:22.771Z,0.00
2018-12-04T05:15:22.642Z,0.00
2018-12-04T05:16:22.514Z,0.00
2018-12-04T05:17:22.432Z,0.00
2018-12-04T05:18:22.249Z,0.00
2018-12-04T05:19:22.117Z,0.00
2018-12-04T05:20:21.984Z,0.00
2018-12-04T05:21:21.853Z,0.00
2018-12-04T05:22:21.722Z,0.00
2018-12-04T05:23:21.591Z,0.00
2018-12-04T05:24:21.459Z,0.00
2018-12-04T05:25:21.330Z,0.00
2018-12-04T05:26:21.196Z,0.00
2018-12-04T05:27:21.066Z,0.00
2018-12-04T05:28:20.938Z,0.00
2018-12-04T05:29:20.808Z,0.00
2018-12-04T05:30:20.671Z,0.00
2018-12-04T05:31:20.541Z,0.00
2018-12-04T05:32:20.408Z,0.00
2018-12-04T05:33:20.278Z,0.00
2018-12-04T05:34:20.145Z,0.00
2018-12-04T05:35:20.015Z,0.00
2018-12-04T05:36:19.882Z,0.00
2018-12-04T05:37:19.753Z,0.00
2018-12-04T05:38:19.620Z,0.00
2018-12-04T05:39:19.490Z,0.00
2018-12-04T05:40:20.376Z,0.00
2018-12-04T05:41:19.227Z,0.00
2018-12-04T05:42:19.094Z,0.00
2018-12-04T05:43:18.961Z,0.00
2018-12-04T05:44:18.831Z,0.00
2018-12-04T05:45:18.702Z,0.00
2018-12-04T05:46:18.569Z,0.00
2018-12-04T05:47:18.437Z,0.00
2018-12-04T05:48:18.303Z,0.00
2018-12-04T05:49:18.174Z,0.00
2018-12-04T05:50:18.041Z,0.00
2018-12-04T05:51:17.910Z,0.00
2018-12-04T05:52:17.782Z,0.00
2018-12-04T05:53:17.650Z,0.00
2018-12-04T05:54:17.516Z,0.00
2018-12-04T05:55:17.385Z,0.00
2018-12-04T05:56:17.253Z,0.00
2018-12-04T05:57:17.124Z,0.00
2018-12-04T05:58:16.991Z,0.00
2018-12-04T05:59:16.859Z,0.00
2018-12-04T06:00:16.731Z,0.00
2018-12-04T06:01:16.597Z,0.00
2018-12-04T06:02:16.465Z,0.00
2018-12-04T06:03:16.338Z,0.00
2018-12-04T06:04:16.214Z,0.00
2018-12-04T06:05:16.073Z,0.00
2018-12-04T06:06:15.946Z,0.00
2018-12-04T06:07:15.812Z,0.00
2018-12-04T06:08:15.680Z,0.00
2018-12-04T06:09:15.549Z,0.00
2018-12-04T06:10:15.417Z,0.00
2018-12-04T06:11:15.484Z,0.00
2018-12-04T06:12:15.156Z,0.00
2018-12-04T06:13:15.024Z,0.00
2018-12-04T06:14:14.893Z,0.00
2018-12-04T06:15:14.778Z,0.00
2018-12-04T06:16:14.632Z,0.00
2018-12-04T06:17:14.502Z,0.00
2018-12-04T06:18:14.373Z,0.00
2018-12-04T06:19:14.240Z,0.00
2018-12-04T06:20:14.108Z,0.00
2018-12-04T06:21:13.978Z,0.00
2018-12-04T06:22:13.845Z,0.00
2018-12-04T06:23:13.718Z,0.00
2018-12-04T06:24:13.586Z,0.00
2018-12-04T06:25:13.464Z,4.00
2018-12-04T06:26:13.326Z,4.00
2018-12-04T06:27:13.193Z,4.00
2018-12-04T06:28:13.061Z,0.00
2018-12-04T06:29:12.933Z,4.00
2018-12-04T06:30:12.801Z,4.00
2018-12-04T06:31:12.670Z,4.00
2018-12-04T06:32:12.539Z,8.00
2018-12-04T06:33:12.412Z,8.00
2018-12-04T06:34:12.279Z,8.00
2018-12-04T06:35:12.151Z,12.00
2018-12-04T06:36:12.017Z,12.00
2018-12-04T06:37:11.888Z,16.00
2018-12-04T06:38:11.758Z,16.00
2018-12-04T06:39:11.626Z,20.00
2018-12-04T06:40:11.494Z,20.00
2018-12-04T06:41:11.365Z,24.00
2018-12-04T06:42:11.237Z,28.00
2018-12-04T06:43:11.104Z,32.00
2018-12-04T06:44:10.972Z,36.00
2018-12-04T06:45:10.841Z,36.00
2018-12-04T06:46:10.716Z,44.00
2018-12-04T06:47:10.582Z,52.00
2018-12-04T06:48:10.449Z,60.00
2018-12-04T06:49:10.323Z,64.00
2018-12-04T06:50:10.193Z,68.00
2018-12-04T06:51:10.060Z,76.00
2018-12-04T06:52:09.928Z,88.00
2018-12-04T06:53:09.800Z,104.00
2018-12-04T06:54:09.666Z,108.00
2018-12-04T06:55:09.535Z,116.00
2018-12-04T06:56:09.413Z,120.00
2018-12-04T06:57:09.276Z,128.00
2018-12-04T06:58:09.145Z,132.00
2018-12-04T06:59:09.015Z,132.00
2018-12-04T07:00:08.882Z,124.00
2018-12-04T07:01:08.758Z,116.00
2018-12-04T07:02:08.621Z,112.00
2018-12-04T07:03:08.492Z,116.00
2018-12-04T07:04:08.360Z,116.00
2018-12-04T07:05:08.228Z,120.00
2018-12-04T07:06:08.098Z,128.00
2018-12-04T07:07:07.970Z,136.00
2018-12-04T07:08:07.837Z,140.00
2018-12-04T07:09:07.704Z,140.00
2018-12-04T07:10:07.574Z,140.00
2018-12-04T07:11:07.443Z,140.00
2018-12-04T07:12:07.312Z,128.00
2018-12-04T07:13:07.191Z,116.00
2018-12-04T07:14:07.050Z,104.00
2018-12-04T07:15:06.919Z,104.00
2018-12-04T07:16:06.787Z,112.00
2018-12-04T07:17:06.671Z,120.00
2018-12-04T07:18:06.527Z,132.00
2018-12-04T07:19:06.394Z,140.00
2018-12-04T07:20:06.265Z,144.00
2018-12-04T07:21:06.137Z,148.00
2018-12-04T07:22:06.003Z,156.00
2018-12-04T07:23:05.920Z,144.00
2018-12-04T07:24:05.740Z,140.00
2018-12-04T07:25:05.611Z,132.00
2018-12-04T07:26:05.483Z,132.00
2018-12-04T07:27:05.348Z,136.00
2018-12-04T07:28:05.215Z,140.00
2018-12-04T07:29:05.085Z,140.00
2018-12-04T07:30:04.954Z,148.00
2018-12-04T07:31:04.823Z,160.00
2018-12-04T07:32:04.691Z,188.00
2018-12-04T07:33:04.561Z,208.00
2018-12-04T07:34:04.429Z,204.00
2018-12-04T07:35:04.299Z,184.00
2018-12-04T07:36:04.170Z,168.00
2018-12-04T07:37:04.036Z,160.00
2018-12-04T07:38:03.906Z,152.00
2018-12-04T07:39:03.777Z,132.00
2018-12-04T07:40:03.645Z,120.00
2018-12-04T07:41:03.513Z,120.00
2018-12-04T07:42:03.385Z,128.00
2018-12-04T07:43:03.254Z,152.00
2018-12-04T07:44:03.121Z,168.00
2018-12-04T07:45:02.992Z,180.00
2018-12-04T07:46:02.862Z,204.00
2018-12-04T07:47:02.732Z,256.00
2018-12-04T07:48:02.605Z,320.00
2018-12-04T07:49:02.482Z,380.00
2018-12-04T07:50:02.339Z,408.00
2018-12-04T07:51:02.208Z,380.00
2018-12-04T07:52:02.079Z,344.00
2018-12-04T07:53:01.959Z,316.00
2018-12-04T07:54:01.817Z,292.00
2018-12-04T07:55:01.687Z,272.00
2018-12-04T07:56:02.365Z,260.00
2018-12-04T07:57:01.424Z,244.00
2018-12-04T07:58:01.294Z,216.00
2018-12-04T07:59:01.164Z,192.00
2018-12-04T08:00:01.033Z,200.00
2018-12-04T08:01:00.905Z,268.00
2018-12-04T08:02:00.770Z,376.00
2018-12-04T08:03:00.641Z,472.00
2018-12-04T08:04:00.509Z,520.00
2018-12-04T08:05:00.379Z,520.00
2018-12-04T08:06:00.248Z,488.00
2018-12-04T08:07:00.122Z,480.00
2018-12-04T08:07:59.987Z,504.00
2018-12-04T08:08:59.859Z,492.00
2018-12-04T08:09:59.726Z,416.00
2018-12-04T08:10:59.597Z,360.00
2018-12-04T08:11:59.465Z,336.00
2018-12-04T08:12:59.335Z,348.00
2018-12-04T08:13:59.206Z,384.00
2018-12-04T08:14:59.076Z,348.00
2018-12-04T08:15:58.942Z,284.00
2018-12-04T08:16:58.815Z,224.00
2018-12-04T08:17:58.685Z,200.00
2018-12-04T08:18:58.554Z,184.00
2018-12-04T08:19:58.421Z,168.00
2018-12-04T08:20:58.290Z,172.00
2018-12-04T08:21:58.159Z,184.00
2018-12-04T08:22:58.032Z,188.00
2018-12-04T08:23:57.899Z,212.00
2018-12-04T08:24:57.769Z,204.00
2018-12-04T08:25:57.638Z,192.00
2018-12-04T08:26:57.509Z,188.00
2018-12-04T08:27:57.377Z,196.00
2018-12-04T08:28:57.246Z,164.00
2018-12-04T08:29:57.116Z,144.00
2018-12-04T08:30:56.985Z,132.00
2018-12-04T08:31:56.856Z,124.00
2018-12-04T08:32:56.727Z,124.00
2018-12-04T08:33:56.594Z,124.00
2018-12-04T08:34:56.473Z,148.00
2018-12-04T08:35:56.332Z,152.00
2018-12-04T08:36:56.202Z,168.00
2018-12-04T08:37:56.070Z,176.00
2018-12-04T08:38:55.941Z,184.00
2018-12-04T08:39:55.810Z,220.00
2018-12-04T08:40:55.680Z,224.00
2018-12-04T08:41:55.548Z,244.00
2018-12-04T08:42:55.417Z,252.00
2018-12-04T08:43:55.287Z,248.00
2018-12-04T08:44:55.158Z,248.00
2018-12-04T08:45:55.025Z,276.00
2018-12-04T08:46:54.894Z,320.00
2018-12-04T08:47:54.762Z,344.00
2018-12-04T08:48:54.633Z,380.00
2018-12-04T08:49:54.501Z,404.00
2018-12-04T08:50:54.371Z,392.00
2018-12-04T08:51:54.240Z,376.00
2018-12-04T08:52:54.109Z,376.00
2018-12-04T08:53:53.980Z,384.00
2018-12-04T08:54:53.847Z,440.00
2018-12-04T08:55:53.717Z,560.00
2018-12-04T08:56:53.586Z,724.00
2018-12-04T08:57:53.454Z,688.00
2018-12-04T08:58:53.323Z,600.00
2018-12-04T08:59:53.193Z,528.00
2018-12-04T09:00:53.060Z,488.00
2018-12-04T09:01:52.931Z,476.00
2018-12-04T09:02:52.802Z,480.00
2018-12-04T09:03:52.670Z,500.00
2018-12-04T09:04:52.538Z,548.00
2018-12-04T09:05:52.406Z,608.00
2018-12-04T09:06:52.303Z,624.00
2018-12-04T09:07:52.145Z,592.00
2018-12-04T09:08:52.057Z,548.00
2018-12-04T09:09:51.885Z,540.00
2018-12-04T09:10:51.753Z,564.00
2018-12-04T09:11:51.621Z,596.00
2018-12-04T09:12:51.501Z,608.00
2018-12-04T09:13:51.360Z,612.00
2018-12-04T09:14:51.230Z,616.00
2018-12-04T09:15:51.099Z,644.00
2018-12-04T09:16:50.969Z,720.00
2018-12-04T09:17:50.837Z,816.00
2018-12-04T09:18:50.714Z,924.00
2018-12-04T09:19:50.597Z,1004.00
2018-12-04T09:20:50.467Z,1068.00
2018-12-04T09:21:50.348Z,1128.00
2018-12-04T09:22:50.211Z,1192.00
2018-12-04T09:23:50.123Z,1236.00
2018-12-04T09:24:49.930Z,1268.00
2018-12-04T09:25:49.815Z,1312.00
2018-12-04T09:26:49.661Z,1348.00
2018-12-04T09:27:49.549Z,1388.00
2018-12-04T09:28:49.410Z,1456.00
2018-12-04T09:29:49.281Z,1584.00
2018-12-04T09:30:49.141Z,1800.00
2018-12-04T09:31:49.005Z,1988.00
2018-12-04T09:32:48.876Z,2104.00
2018-12-04T09:33:48.748Z,2176.00
2018-12-04T09:34:48.619Z,2212.00
2018-12-04T09:35:48.483Z,2188.00
2018-12-04T09:36:48.353Z,2132.00
2018-12-04T09:37:48.226Z,2112.00
2018-12-04T09:38:48.094Z,2216.00
2018-12-04T09:39:47.961Z,2304.00
2018-12-04T09:40:47.834Z,2476.00
2018-12-04T09:41:47.703Z,2792.00
2018-12-04T09:42:47.570Z,3220.00
2018-12-04T09:43:47.439Z,3452.00
2018-12-04T09:44:47.309Z,3088.00
2018-12-04T09:45:47.181Z,2572.00
2018-12-04T09:46:47.050Z,2528.00
2018-12-04T09:47:46.920Z,2592.00
2018-12-04T09:48:46.794Z,2728.00
2018-12-04T09:49:46.661Z,2912.00
2018-12-04T09:50:46.529Z,3024.00
2018-12-04T09:51:46.398Z,3016.00
2018-12-04T09:52:46.269Z,3068.00
2018-12-04T09:53:51.906Z,3236.00
2018-12-04T09:54:46.007Z,3588.00
2018-12-04T09:55:45.877Z,4116.00
2018-12-04T09:56:45.747Z,4460.00
2018-12-04T09:57:45.616Z,4380.00
2018-12-04T09:58:45.488Z,4008.00
2018-12-04T09:59:45.357Z,3404.00
2018-12-04T10:00:45.226Z,2848.00
2018-12-04T10:01:45.098Z,2548.00
2018-12-04T10:02:44.969Z,2316.00
2018-12-04T10:03:44.838Z,2136.00
2018-12-04T10:04:44.708Z,2036.00
2018-12-04T10:05:44.579Z,1884.00
2018-12-04T10:06:44.452Z,1744.00
2018-12-04T10:07:44.320Z,1692.00
2018-12-04T10:08:44.189Z,1616.00
2018-12-04T10:09:44.060Z,1488.00
2018-12-04T10:10:43.930Z,1376.00
2018-12-04T10:11:43.800Z,1284.00
2018-12-04T10:12:43.699Z,1228.00
2018-12-04T10:13:43.540Z,1136.00
2018-12-04T10:14:43.410Z,1024.00
2018-12-04T10:15:43.281Z,912.00
2018-12-04T10:16:43.150Z,840.00
2018-12-04T10:17:43.019Z,872.00
2018-12-04T10:18:47.672Z,1000.00
2018-12-04T10:19:42.760Z,1156.00
2018-12-04T10:20:42.631Z,1336.00
2018-12-04T10:21:42.501Z,1536.00
2018-12-04T10:22:42.371Z,1764.00
2018-12-04T10:23:42.242Z,1804.00
2018-12-04T10:24:42.111Z,2180.00
2018-12-04T10:25:41.984Z,2456.00
2018-12-04T10:26:41.851Z,2712.00
2018-12-04T10:27:41.721Z,2492.00
2018-12-04T10:28:41.591Z,1900.00
2018-12-04T10:29:41.464Z,1424.00
2018-12-04T10:30:41.331Z,1308.00
2018-12-04T10:31:41.201Z,1460.00
2018-12-04T10:32:41.069Z,1756.00
2018-12-04T10:33:40.940Z,2000.00
2018-12-04T10:34:40.811Z,2112.00
2018-12-04T10:35:40.679Z,2092.00
2018-12-04T10:36:40.550Z,2164.00
2018-12-04T10:37:40.420Z,2104.00
2018-12-04T10:38:40.291Z,2172.00
2018-12-04T10:39:40.158Z,2136.00
2018-12-04T10:40:40.029Z,2040.00
2018-12-04T10:41:39.906Z,1996.00
2018-12-04T10:42:39.769Z,1912.00
2018-12-04T10:43:39.638Z,1764.00
2018-12-04T10:44:39.509Z,1560.00
2018-12-04T10:45:39.381Z,1436.00
2018-12-04T10:46:39.248Z,1476.00
2018-12-04T10:47:39.117Z,1596.00
2018-12-04T10:48:38.987Z,1672.00
2018-12-04T10:49:39.899Z,1696.00
2018-12-04T10:50:38.727Z,1732.00
2018-12-04T10:51:38.597Z,1700.00
2018-12-04T10:52:38.467Z,1628.00
2018-12-04T10:53:38.337Z,1572.00
2018-12-04T10:54:38.207Z,1444.00
2018-12-04T10:55:38.082Z,1276.00
2018-12-04T10:56:37.948Z,1108.00
2018-12-04T10:57:37.816Z,1024.00
2018-12-04T10:58:37.692Z,976.00
2018-12-04T10:59:37.555Z,904.00
2018-12-04T11:00:37.424Z,888.00
2018-12-04T11:01:37.305Z,952.00
2018-12-04T11:02:37.164Z,1076.00
2018-12-04T11:03:37.040Z,1156.00
2018-12-04T11:04:36.902Z,1100.00
2018-12-04T11:05:36.775Z,996.00
2018-12-04T11:06:36.643Z,976.00
2018-12-04T11:07:36.511Z,1008.00
2018-12-04T11:08:36.382Z,1088.00
2018-12-04T11:09:36.268Z,1232.00
2018-12-04T11:10:36.125Z,1304.00
2018-12-04T11:11:35.988Z,1408.00
2018-12-04T11:12:35.860Z,1560.00
2018-12-04T11:13:35.727Z,1620.00
2018-12-04T11:14:35.599Z,1508.00
2018-12-04T11:15:35.471Z,1392.00
2018-12-04T11:16:35.338Z,1428.00
2018-12-04T11:17:35.209Z,1564.00
2018-12-04T11:18:35.079Z,1764.00
2018-12-04T11:19:34.948Z,2084.00
2018-12-04T11:20:34.816Z,2536.00
2018-12-04T11:21:34.683Z,2736.00
2018-12-04T11:22:34.564Z,2456.00
2018-12-04T11:23:34.423Z,2164.00
2018-12-04T11:24:34.294Z,2136.00
2018-12-04T11:25:34.162Z,2236.00
2018-12-04T11:26:34.034Z,2496.00
2018-12-04T11:27:33.901Z,2556.00
2018-12-04T11:28:33.773Z,2840.00
2018-12-04T11:29:33.644Z,3580.00
2018-12-04T11:30:33.516Z,3700.00
2018-12-04T11:31:33.382Z,3120.00
2018-12-04T11:32:33.253Z,2792.00
2018-12-04T11:33:33.121Z,2680.00
2018-12-04T11:34:32.992Z,2828.00
2018-12-04T11:35:32.863Z,2920.00
2018-12-04T11:36:32.729Z,2852.00
2018-12-04T11:37:32.603Z,3256.00
2018-12-04T11:38:32.476Z,3620.00
2018-12-04T11:39:32.342Z,4336.00
2018-12-04T11:40:32.211Z,4332.00
2018-12-04T11:41:32.086Z,4608.00
2018-12-04T11:42:31.951Z,4372.00
2018-12-04T11:43:31.821Z,3748.00
2018-12-04T11:44:31.694Z,2844.00
2018-12-04T11:45:31.563Z,2616.00
2018-12-04T11:46:31.433Z,2420.00
2018-12-04T11:47:31.301Z,2404.00
2018-12-04T11:48:31.172Z,2692.00
2018-12-04T11:49:31.041Z,3128.00
2018-12-04T11:50:30.913Z,3192.00
2018-12-04T11:51:30.782Z,3252.00
2018-12-04T11:52:30.652Z,3464.00
2018-12-04T11:53:30.524Z,3432.00
2018-12-04T11:54:30.390Z,3224.00
2018-12-04T11:55:30.261Z,3112.00
2018-12-04T11:56:30.131Z,2960.00
2018-12-04T11:57:30.003Z,2912.00
2018-12-04T11:58:29.872Z,3004.00
2018-12-04T11:59:29.741Z,3332.00
2018-12-04T12:00:29.612Z,4212.00
2018-12-04T12:01:29.482Z,4508.00
2018-12-04T12:02:29.353Z,4820.00
2018-12-04T12:03:29.223Z,5240.00
2018-12-04T12:04:29.092Z,5892.00
2018-12-04T12:05:28.965Z,7020.00
2018-12-04T12:06:28.843Z,7556.00
2018-12-04T12:07:28.706Z,6040.00
2018-12-04T12:08:28.576Z,4796.00
2018-12-04T12:09:28.444Z,3408.00
2018-12-04T12:10:28.317Z,3412.00
2018-12-04T12:11:28.189Z,3320.00
2018-12-04T12:12:28.057Z,4252.00
2018-12-04T12:13:27.929Z,4280.00
2018-12-04T12:14:27.798Z,3664.00
2018-12-04T12:15:27.670Z,3364.00
2018-12-04T12:16:27.539Z,3884.00
2018-12-04T12:17:27.411Z,4536.00
2018-12-04T12:18:27.283Z,5056.00
2018-12-04T12:19:27.155Z,5584.00
2018-12-04T12:20:27.027Z,6584.00
2018-12-04T12:21:26.896Z,6596.00
2018-12-04T12:22:26.768Z,6340.00
2018-12-04T12:23:26.639Z,4772.00
2018-12-04T12:24:26.511Z,4588.00
2018-12-04T12:25:26.380Z,5344.00
2018-12-04T12:26:26.249Z,5664.00
2018-12-04T12:27:26.121Z,5680.00
2018-12-04T12:28:25.995Z,4728.00
2018-12-04T12:29:25.862Z,3588.00
2018-12-04T12:30:25.735Z,3388.00
2018-12-04T12:31:25.609Z,2844.00
2018-12-04T12:32:25.481Z,2584.00
2018-12-04T12:33:25.349Z,2848.00
2018-12-04T12:34:25.219Z,3368.00
2018-12-04T12:35:25.096Z,3304.00
2018-12-04T12:36:24.960Z,2780.00
2018-12-04T12:37:24.831Z,2564.00
2018-12-04T12:38:24.703Z,2168.00
2018-12-04T12:39:24.574Z,2860.00
2018-12-04T12:40:24.444Z,3024.00
2018-12-04T12:41:24.315Z,3632.00
2018-12-04T12:42:24.188Z,4052.00
2018-12-04T12:43:24.059Z,2820.00
2018-12-04T12:44:23.930Z,2736.00
2018-12-04T12:45:23.801Z,2568.00